createdAt,value
2023-03-21T00:00:29.354Z,8.40
2023-03-21T00:02:55.999Z,8.40
2023-03-21T00:05:22.923Z,8.40
2023-03-21T00:07:49.546Z,8.30
2023-03-21T00:10:23.949Z,8.30
2023-03-21T00:12:58.452Z,8.30
2023-03-21T00:15:39.919Z,8.30
2023-03-21T00:18:11.450Z,9.50
2023-03-21T00:20:38.141Z,10.10
2023-03-21T00:23:04.793Z,9.00
2023-03-21T00:25:32.973Z,9.30
2023-03-21T00:28:08.099Z,8.20
2023-03-21T00:30:35.382Z,8.20
2023-03-21T00:33:12.124Z,8.10
2023-03-21T00:36:02.622Z,8.10
2023-03-21T00:38:31.723Z,9.20
2023-03-21T00:41:04.657Z,8.10
2023-03-21T00:43:32.808Z,8.10
2023-03-21T00:45:59.444Z,8.10
2023-03-21T00:48:26.724Z,8.10
2023-03-21T00:50:54.612Z,8.20
2023-03-21T00:53:21.454Z,8.60
2023-03-21T00:55:48.184Z,10.20
2023-03-21T00:58:15.456Z,8.80
2023-03-21T01:00:42.127Z,8.20
2023-03-21T01:03:23.241Z,8.10
2023-03-21T01:06:07.524Z,8.10
2023-03-21T01:08:52.101Z,8.10
2023-03-21T01:11:19.992Z,8.10
2023-03-21T01:13:53.803Z,8.70
2023-03-21T01:16:22.871Z,8.10
2023-03-21T01:18:49.457Z,8.10
2023-03-21T01:21:16.322Z,8.10
2023-03-21T01:23:43.118Z,8.10
2023-03-21T01:26:10.628Z,8.10
2023-03-21T01:28:37.609Z,10.90
2023-03-21T01:31:05.253Z,8.00
2023-03-21T01:33:32.675Z,8.10
2023-03-21T01:36:10.248Z,8.10
2023-03-21T01:38:39.221Z,8.10
2023-03-21T01:41:17.099Z,8.00
2023-03-21T01:43:46.107Z,8.00
2023-03-21T01:46:34.784Z,8.10
2023-03-21T01:49:38.733Z,8.00
2023-03-21T01:52:14.019Z,8.00
2023-03-21T01:54:43.122Z,8.10
2023-03-21T01:57:12.141Z,9.50
2023-03-21T01:59:42.883Z,7.10
2023-03-21T02:02:12.520Z,8.10
2023-03-21T02:04:39.936Z,8.10
2023-03-21T02:07:12.185Z,8.10
2023-03-21T02:09:40.877Z,8.00
2023-03-21T02:12:08.725Z,9.10
2023-03-21T02:14:36.628Z,8.00
2023-03-21T02:17:27.210Z,7.90
2023-03-21T02:20:11.957Z,7.90
2023-03-21T02:22:52.427Z,7.90
2023-03-21T02:25:25.278Z,7.80
2023-03-21T02:27:56.979Z,7.80
2023-03-21T02:30:51.249Z,9.00
2023-03-21T02:33:37.206Z,7.80
2023-03-21T02:36:13.594Z,7.80
2023-03-21T02:38:56.344Z,7.80
2023-03-21T02:41:40.205Z,7.70
2023-03-21T02:44:19.567Z,7.70
2023-03-21T02:47:05.261Z,7.70
2023-03-21T02:49:46.701Z,7.60
2023-03-21T02:52:25.763Z,7.60
2023-03-21T02:55:05.186Z,7.60
2023-03-21T02:57:42.218Z,7.60
2023-03-21T03:00:16.668Z,10.30
2023-03-21T03:02:44.226Z,7.50
2023-03-21T03:05:20.650Z,7.60
2023-03-21T03:08:06.393Z,7.50
2023-03-21T03:10:41.492Z,7.50
2023-03-21T03:13:14.442Z,7.60
2023-03-21T03:15:48.070Z,7.60
2023-03-21T03:18:35.003Z,7.50
2023-03-21T03:21:15.075Z,7.40
2023-03-21T03:23:42.016Z,7.40
2023-03-21T03:26:12.236Z,7.40
2023-03-21T03:28:40.683Z,7.30
2023-03-21T03:31:10.324Z,7.30
2023-03-21T03:33:38.976Z,7.20
2023-03-21T03:36:09.360Z,7.20
2023-03-21T03:38:38.332Z,7.10
2023-03-21T03:41:10.392Z,7.00
2023-03-21T03:43:40.985Z,6.90
2023-03-21T03:46:14.606Z,6.90
2023-03-21T03:48:54.330Z,6.90
2023-03-21T03:51:24.154Z,6.80
2023-03-21T03:54:02.978Z,6.80
2023-03-21T03:56:29.800Z,6.70
2023-03-21T03:58:57.287Z,6.60
2023-03-21T04:01:24.098Z,6.50
2023-03-21T04:03:56.458Z,8.20
2023-03-21T04:06:30.515Z,6.60
2023-03-21T04:08:57.285Z,6.50
2023-03-21T04:11:23.984Z,6.40
2023-03-21T04:13:50.750Z,6.40
2023-03-21T04:16:17.626Z,6.40
2023-03-21T04:18:44.354Z,6.40
2023-03-21T04:21:12.940Z,6.30
2023-03-21T04:23:40.152Z,6.20
2023-03-21T04:26:07.097Z,6.20
2023-03-21T04:28:33.960Z,6.10
2023-03-21T04:31:05.057Z,6.20
2023-03-21T04:33:38.311Z,6.20
2023-03-21T04:36:06.749Z,6.10
2023-03-21T04:38:33.952Z,6.00
2023-03-21T04:41:00.779Z,5.90
2023-03-21T04:43:28.472Z,5.80
2023-03-21T04:45:55.862Z,5.80
2023-03-21T04:48:24.559Z,5.70
2023-03-21T04:50:51.708Z,5.60
2023-03-21T04:53:18.372Z,5.60
2023-03-21T04:55:45.472Z,5.60
2023-03-21T04:58:12.195Z,5.60
2023-03-21T05:00:39.264Z,5.50
2023-03-21T05:03:09.178Z,6.10
2023-03-21T05:05:37.409Z,5.50
2023-03-21T05:08:04.768Z,5.50
2023-03-21T05:10:31.639Z,5.50
2023-03-21T05:12:58.320Z,5.50
2023-03-21T05:15:25.168Z,5.50
2023-03-21T05:17:51.738Z,5.50
2023-03-21T05:20:19.096Z,5.60
2023-03-21T05:22:46.257Z,5.50
2023-03-21T05:25:13.309Z,5.70
2023-03-21T05:27:45.095Z,5.80
2023-03-21T05:30:16.144Z,5.80
2023-03-21T05:32:42.818Z,5.80
2023-03-21T05:35:10.237Z,5.90
2023-03-21T05:37:38.295Z,5.90
2023-03-21T05:40:09.179Z,5.90
2023-03-21T05:42:35.839Z,5.80
2023-03-21T05:45:02.475Z,5.90
2023-03-21T05:47:29.134Z,5.90
2023-03-21T05:49:55.759Z,5.80
2023-03-21T05:52:22.519Z,5.80
2023-03-21T05:54:49.348Z,5.80
2023-03-21T05:57:16.106Z,5.70
2023-03-21T05:59:42.706Z,8.80
2023-03-21T06:02:09.376Z,5.70
2023-03-21T06:04:36.036Z,5.80
2023-03-21T06:07:02.771Z,5.80
2023-03-21T06:09:29.529Z,5.80
2023-03-21T06:11:56.967Z,5.80
2023-03-21T06:14:24.228Z,5.80
2023-03-21T06:16:52.531Z,5.80
2023-03-21T06:19:19.474Z,7.90
2023-03-21T06:21:46.132Z,5.90
2023-03-21T06:24:12.756Z,5.90
2023-03-21T06:26:39.495Z,5.90
2023-03-21T06:29:06.285Z,5.90
2023-03-21T06:31:32.978Z,5.90
2023-03-21T06:33:59.677Z,7.80
2023-03-21T06:36:26.470Z,5.90
2023-03-21T06:38:53.165Z,5.90
2023-03-21T06:41:19.836Z,5.90
2023-03-21T06:43:46.535Z,5.90
2023-03-21T06:46:13.568Z,5.90
2023-03-21T06:48:44.467Z,6.10
2023-03-21T06:51:12.114Z,6.10
2023-03-21T06:53:38.963Z,6.30
2023-03-21T06:56:06.023Z,6.30
2023-03-21T06:58:32.695Z,6.40
2023-03-21T07:00:59.952Z,6.40
2023-03-21T07:03:26.618Z,6.40
2023-03-21T07:05:53.398Z,6.50
2023-03-21T07:08:20.675Z,6.50
2023-03-21T07:10:47.510Z,6.60
2023-03-21T07:13:14.739Z,6.60
2023-03-21T07:15:41.776Z,9.70
2023-03-21T07:18:09.112Z,6.80
2023-03-21T07:20:38.084Z,6.90
2023-03-21T07:23:04.984Z,7.00
2023-03-21T07:25:31.950Z,7.10
2023-03-21T07:27:58.622Z,7.20
2023-03-21T07:30:25.453Z,7.30
2023-03-21T07:32:53.435Z,8.80
2023-03-21T07:35:20.480Z,7.50
2023-03-21T07:37:47.162Z,7.70
2023-03-21T07:40:13.815Z,7.90
2023-03-21T07:42:41.405Z,8.00
2023-03-21T07:45:09.306Z,8.20
2023-03-21T07:47:36.151Z,8.40
2023-03-21T07:50:04.572Z,8.50
2023-03-21T07:52:31.781Z,8.70
2023-03-21T07:54:58.480Z,8.80
2023-03-21T07:57:25.214Z,8.90
2023-03-21T07:59:51.962Z,9.10
2023-03-21T08:02:18.698Z,9.10
2023-03-21T08:04:45.499Z,9.20
2023-03-21T08:07:12.219Z,9.20
2023-03-21T08:09:39.026Z,9.20
2023-03-21T08:12:08.209Z,9.30
2023-03-21T08:14:35.960Z,9.30
2023-03-21T08:17:03.269Z,9.30
2023-03-21T08:19:29.900Z,9.40
2023-03-21T08:21:59.770Z,9.40
2023-03-21T08:24:26.890Z,9.50
2023-03-21T08:26:53.614Z,9.60
2023-03-21T08:29:21.568Z,9.50
2023-03-21T08:31:48.427Z,9.60
2023-03-21T08:34:15.393Z,9.70
2023-03-21T08:36:42.098Z,9.70
2023-03-21T08:39:08.709Z,9.80
2023-03-21T08:41:36.104Z,9.90
2023-03-21T08:44:03.038Z,10.90
2023-03-21T08:46:29.843Z,10.10
2023-03-21T08:48:56.490Z,7.20
2023-03-21T08:51:23.391Z,10.20
2023-03-21T08:53:51.608Z,10.20
2023-03-21T08:56:18.386Z,10.30
2023-03-21T08:58:45.093Z,10.40
2023-03-21T09:01:15.561Z,10.40
2023-03-21T09:03:42.863Z,10.50
2023-03-21T09:06:11.212Z,10.60
2023-03-21T09:08:38.393Z,10.70
2023-03-21T09:11:05.338Z,10.80
2023-03-21T09:13:32.004Z,10.90
2023-03-21T09:16:01.501Z,11.10
2023-03-21T09:18:45.224Z,11.20
2023-03-21T09:21:14.627Z,11.30
2023-03-21T09:23:41.729Z,11.50
2023-03-21T09:26:09.711Z,11.70
2023-03-21T09:28:39.010Z,13.30
2023-03-21T09:31:06.615Z,12.10
2023-03-21T09:33:35.266Z,12.00
2023-03-21T09:36:02.217Z,13.10
2023-03-21T09:38:30.545Z,14.60
2023-03-21T09:41:05.075Z,13.20
2023-03-21T09:43:32.392Z,12.50
2023-03-21T09:46:02.286Z,12.60
2023-03-21T09:48:54.416Z,14.20
2023-03-21T09:51:24.554Z,12.70
2023-03-21T09:53:51.888Z,12.70
2023-03-21T09:56:19.113Z,14.00
2023-03-21T09:58:52.903Z,13.20
2023-03-21T10:01:28.382Z,13.00
2023-03-21T10:04:00.686Z,13.10
2023-03-21T10:06:30.938Z,14.90
2023-03-21T10:09:06.509Z,15.20
2023-03-21T10:11:53.531Z,13.30
2023-03-21T10:14:29.200Z,14.60
2023-03-21T10:17:01.389Z,13.40
2023-03-21T10:19:29.916Z,13.40
2023-03-21T10:22:01.130Z,13.40
2023-03-21T10:24:31.863Z,15.10
2023-03-21T10:26:58.811Z,13.60
2023-03-21T10:29:27.706Z,14.10
2023-03-21T10:31:54.664Z,13.60
2023-03-21T10:34:31.888Z,14.60
2023-03-21T10:36:59.445Z,13.70
2023-03-21T10:39:27.867Z,14.70
2023-03-21T10:41:54.796Z,14.00
2023-03-21T10:44:21.496Z,15.40
2023-03-21T10:46:58.569Z,14.80
2023-03-21T10:49:26.725Z,14.10
2023-03-21T10:51:55.565Z,14.00
2023-03-21T10:54:22.882Z,16.40
2023-03-21T10:56:57.670Z,14.30
2023-03-21T10:59:25.202Z,14.40
2023-03-21T11:01:52.840Z,15.90
2023-03-21T11:04:22.014Z,15.40
2023-03-21T11:06:56.938Z,15.70
2023-03-21T11:09:25.189Z,14.60
2023-03-21T11:12:01.856Z,15.90
2023-03-21T11:14:41.962Z,14.70
2023-03-21T11:17:17.457Z,14.70
2023-03-21T11:20:09.291Z,14.70
2023-03-21T11:22:40.496Z,14.80
2023-03-21T11:25:09.315Z,14.70
2023-03-21T11:27:35.986Z,14.80
2023-03-21T11:30:05.315Z,16.50
2023-03-21T11:32:36.277Z,14.80
2023-03-21T11:35:14.025Z,14.80
2023-03-21T11:37:49.498Z,14.80
2023-03-21T11:40:23.829Z,14.70
2023-03-21T11:42:52.282Z,14.70
2023-03-21T11:45:20.634Z,15.50
2023-03-21T11:47:49.352Z,14.80
2023-03-21T11:50:21.242Z,15.00
2023-03-21T11:52:59.434Z,15.00
2023-03-21T11:55:58.282Z,15.00
2023-03-21T11:58:44.715Z,15.10
2023-03-21T12:01:30.476Z,15.00
2023-03-21T12:04:07.691Z,15.00
2023-03-21T12:06:39.965Z,15.00
2023-03-21T12:09:18.724Z,15.00
2023-03-21T12:11:52.285Z,15.10
2023-03-21T12:14:18.838Z,16.20
2023-03-21T12:16:54.655Z,16.20
2023-03-21T12:19:24.298Z,15.00
2023-03-21T12:21:54.957Z,15.00
2023-03-21T12:24:38.939Z,16.90
2023-03-21T12:27:11.388Z,15.10
2023-03-21T12:29:41.125Z,15.20
2023-03-21T12:32:26.748Z,15.30
2023-03-21T12:35:12.119Z,15.40
2023-03-21T12:37:57.976Z,15.60
2023-03-21T12:40:40.735Z,15.70
2023-03-21T12:43:33.427Z,15.70
2023-03-21T12:46:03.147Z,15.70
2023-03-21T12:48:38.751Z,16.80
2023-03-21T12:51:08.615Z,15.80
2023-03-21T12:53:53.133Z,15.90
2023-03-21T12:56:27.000Z,16.00
2023-03-21T12:58:59.493Z,16.20
2023-03-21T13:01:28.534Z,16.20
2023-03-21T13:04:06.264Z,16.30
2023-03-21T13:06:33.566Z,16.30
2023-03-21T13:09:23.441Z,18.80
2023-03-21T13:11:57.409Z,16.30
2023-03-21T13:14:25.713Z,16.10
2023-03-21T13:16:55.904Z,17.40
2023-03-21T13:19:22.518Z,17.40
2023-03-21T13:21:49.131Z,16.70
2023-03-21T13:24:23.658Z,17.20
2023-03-21T13:26:58.097Z,15.90
2023-03-21T13:29:45.048Z,15.90
2023-03-21T13:32:50.338Z,18.10
2023-03-21T13:35:17.127Z,15.80
2023-03-21T13:37:48.992Z,15.90
2023-03-21T13:40:23.357Z,16.00
2023-03-21T13:42:54.630Z,15.90
2023-03-21T13:45:27.356Z,16.00
2023-03-21T13:47:56.071Z,15.90
2023-03-21T13:50:48.802Z,16.60
2023-03-21T13:53:15.469Z,16.00
2023-03-21T13:55:44.450Z,16.10
2023-03-21T13:58:23.309Z,16.60
2023-03-21T14:01:09.843Z,15.90
2023-03-21T14:03:36.474Z,15.90
2023-03-21T14:06:03.254Z,15.90
2023-03-21T14:08:37.121Z,15.90
2023-03-21T14:11:06.316Z,16.00
2023-03-21T14:13:35.087Z,15.90
2023-03-21T14:16:10.273Z,17.80
2023-03-21T14:18:54.156Z,16.10
2023-03-21T14:21:25.818Z,16.10
2023-03-21T14:23:59.458Z,16.20
2023-03-21T14:26:27.408Z,16.20
2023-03-21T14:28:54.117Z,17.50
2023-03-21T14:31:21.891Z,17.40
2023-03-21T14:33:54.035Z,16.10
2023-03-21T14:36:25.676Z,16.20
2023-03-21T14:39:16.315Z,16.20
2023-03-21T14:41:44.475Z,16.20
2023-03-21T14:44:16.050Z,17.90
2023-03-21T14:46:43.539Z,16.10
2023-03-21T14:49:14.527Z,16.10
2023-03-21T14:51:42.462Z,16.10
2023-03-21T14:54:12.201Z,16.20
2023-03-21T14:56:39.344Z,17.90
2023-03-21T14:59:06.049Z,16.10
2023-03-21T15:01:34.804Z,16.70
2023-03-21T15:04:04.233Z,16.20
2023-03-21T15:06:30.851Z,17.90
2023-03-21T15:09:02.021Z,17.80
2023-03-21T15:11:32.960Z,16.20
2023-03-21T15:14:01.293Z,16.20
2023-03-21T15:16:28.136Z,16.70
2023-03-21T15:18:54.905Z,18.90
2023-03-21T15:21:23.362Z,17.10
2023-03-21T15:23:52.842Z,17.40
2023-03-21T15:26:20.832Z,16.00
2023-03-21T15:28:49.007Z,16.50
2023-03-21T15:31:20.545Z,16.10
2023-03-21T15:33:48.026Z,15.90
2023-03-21T15:36:18.965Z,16.90
2023-03-21T15:38:48.831Z,15.70
2023-03-21T15:41:21.555Z,15.60
2023-03-21T15:43:49.198Z,15.50
2023-03-21T15:46:16.740Z,16.30
2023-03-21T15:48:43.991Z,17.40
2023-03-21T15:51:21.088Z,15.70
2023-03-21T15:53:48.220Z,15.30
2023-03-21T15:56:16.473Z,17.50
2023-03-21T15:58:44.727Z,17.00
2023-03-21T16:01:17.411Z,15.20
2023-03-21T16:03:48.548Z,15.10
2023-03-21T16:06:19.847Z,16.80
2023-03-21T16:08:50.466Z,14.80
2023-03-21T16:11:18.700Z,14.70
2023-03-21T16:13:45.920Z,16.10
2023-03-21T16:16:17.100Z,14.50
2023-03-21T16:18:43.900Z,14.30
2023-03-21T16:21:12.095Z,14.20
2023-03-21T16:23:38.943Z,14.20
2023-03-21T16:26:05.782Z,14.10
2023-03-21T16:28:32.459Z,14.10
2023-03-21T16:30:59.135Z,14.00
2023-03-21T16:33:25.815Z,13.90
2023-03-21T16:35:54.270Z,13.90
2023-03-21T16:38:21.090Z,13.80
2023-03-21T16:40:47.843Z,13.70
2023-03-21T16:43:14.545Z,13.70
2023-03-21T16:45:41.405Z,13.70
2023-03-21T16:48:08.931Z,13.60
2023-03-21T16:50:37.179Z,13.60
2023-03-21T16:53:04.170Z,14.40
2023-03-21T16:55:33.282Z,13.40
2023-03-21T16:58:00.417Z,13.30
2023-03-21T17:00:28.283Z,13.30
2023-03-21T17:02:55.868Z,13.10
2023-03-21T17:05:26.681Z,13.10
2023-03-21T17:07:54.019Z,13.00
2023-03-21T17:10:25.769Z,13.00
2023-03-21T17:12:52.462Z,12.90
2023-03-21T17:15:20.046Z,13.00
2023-03-21T17:17:49.995Z,12.90
2023-03-21T17:20:21.563Z,14.60
2023-03-21T17:22:48.782Z,12.90
2023-03-21T17:25:16.137Z,12.80
2023-03-21T17:27:42.881Z,12.80
2023-03-21T17:30:17.063Z,12.80
2023-03-21T17:32:43.733Z,12.70
2023-03-21T17:35:10.595Z,12.60
2023-03-21T17:37:38.567Z,12.50
2023-03-21T17:40:07.145Z,13.10
2023-03-21T17:42:34.092Z,12.40
2023-03-21T17:45:00.940Z,12.50
2023-03-21T17:47:30.015Z,12.30
2023-03-21T17:49:56.769Z,12.30
2023-03-21T17:52:24.721Z,12.20
2023-03-21T17:54:51.466Z,12.20
2023-03-21T17:57:18.312Z,12.20
2023-03-21T17:59:44.985Z,12.10
2023-03-21T18:02:11.674Z,12.20
2023-03-21T18:04:38.393Z,12.20
2023-03-21T18:07:06.961Z,12.20
2023-03-21T18:09:35.903Z,12.10
2023-03-21T18:12:02.608Z,12.10
2023-03-21T18:14:30.621Z,12.00
2023-03-21T18:16:57.558Z,11.90
2023-03-21T18:19:24.255Z,11.90
2023-03-21T18:21:51.487Z,11.90
2023-03-21T18:24:18.189Z,13.40
2023-03-21T18:26:46.156Z,11.90
2023-03-21T18:32:08.945Z,11.80
2023-03-21T18:34:39.220Z,11.80
2023-03-21T18:37:08.184Z,11.80
2023-03-21T18:39:35.544Z,11.80
2023-03-21T18:42:04.140Z,11.70
2023-03-21T18:44:37.977Z,14.00
2023-03-21T18:47:05.406Z,14.50
2023-03-21T18:52:18.906Z,12.80
2023-03-21T18:54:45.949Z,11.60
2023-03-21T18:57:36.253Z,11.50
2023-03-21T18:59:59.803Z,11.50
2023-03-21T19:02:26.843Z,13.90
2023-03-21T19:04:54.031Z,11.30
2023-03-21T19:07:20.715Z,13.40
2023-03-21T19:10:10.641Z,11.30
2023-03-21T19:12:34.199Z,12.50
2023-03-21T19:15:00.890Z,11.30
2023-03-21T19:18:20.690Z,11.30
2023-03-21T19:20:16.512Z,11.40
2023-03-21T19:22:43.305Z,11.30
2023-03-21T19:25:10.826Z,11.30
2023-03-21T19:27:38.156Z,11.30
2023-03-21T19:30:15.084Z,11.30
2023-03-21T19:32:42.586Z,11.20
2023-03-21T19:35:09.504Z,13.00
2023-03-21T19:37:36.534Z,11.10
2023-03-21T19:40:05.485Z,11.10
2023-03-21T19:42:32.631Z,11.10
2023-03-21T19:44:59.507Z,11.10
2023-03-21T19:47:26.354Z,12.40
2023-03-21T19:52:40.874Z,10.90
2023-03-21T19:55:08.134Z,10.90
2023-03-21T19:57:35.119Z,10.90
2023-03-21T20:00:02.527Z,12.90
2023-03-21T20:02:37.173Z,10.80
2023-03-21T20:05:05.112Z,12.20
2023-03-21T20:07:33.174Z,10.70
2023-03-21T20:09:59.949Z,10.80
2023-03-21T20:12:27.521Z,12.80
2023-03-21T20:15:07.068Z,10.80
2023-03-21T20:17:38.978Z,10.80
2023-03-21T20:20:13.703Z,10.80
2023-03-21T20:25:28.465Z,10.70
2023-03-21T20:28:12.934Z,10.70
2023-03-21T20:30:49.518Z,10.60
2023-03-21T20:33:16.656Z,9.70
2023-03-21T20:36:30.885Z,10.70
2023-03-21T20:38:31.013Z,12.70
2023-03-21T20:40:58.128Z,10.50
2023-03-21T20:44:11.688Z,10.40
2023-03-21T20:46:12.761Z,10.40
2023-03-21T20:48:39.822Z,10.30
2023-03-21T20:52:00.239Z,10.30
2023-03-21T20:53:55.350Z,10.30
2023-03-21T20:56:22.431Z,10.20
2023-03-21T20:59:11.893Z,10.20
2023-03-21T21:01:35.819Z,10.20
2023-03-21T21:04:02.745Z,10.20
2023-03-21T21:06:29.727Z,10.20
2023-03-21T21:08:56.506Z,10.30
2023-03-21T21:14:09.856Z,10.30
2023-03-21T21:16:37.241Z,10.30
2023-03-21T21:19:03.947Z,10.40
2023-03-21T21:21:31.710Z,10.40
2023-03-21T21:23:58.819Z,10.40
2023-03-21T21:26:25.729Z,10.40
2023-03-21T21:28:53.265Z,10.60
2023-03-21T21:31:20.506Z,10.40
2023-03-21T21:33:49.992Z,10.40
2023-03-21T21:36:16.891Z,10.40
2023-03-21T21:38:43.660Z,12.80
2023-03-21T21:41:16.951Z,10.40
2023-03-21T21:43:43.685Z,11.10
2023-03-21T21:46:10.403Z,10.50
2023-03-21T21:48:37.124Z,10.40
2023-03-21T21:51:05.521Z,10.40
2023-03-21T21:53:33.725Z,10.40
2023-03-21T21:56:03.400Z,10.50
2023-03-21T21:58:33.709Z,10.50
2023-03-21T22:01:01.749Z,11.90
2023-03-21T22:03:36.424Z,10.50
2023-03-21T22:06:03.557Z,11.90
2023-03-21T22:08:31.038Z,10.40
2023-03-21T22:10:59.603Z,10.50
2023-03-21T22:13:26.339Z,10.40
2023-03-21T22:15:53.047Z,10.50
2023-03-21T22:18:19.944Z,10.40
2023-03-21T22:20:46.662Z,10.40
2023-03-21T22:23:13.410Z,10.30
2023-03-21T22:25:40.120Z,10.40
2023-03-21T22:28:06.805Z,10.40
2023-03-21T22:30:33.838Z,10.40
2023-03-21T22:33:09.263Z,10.30
2023-03-21T22:35:37.003Z,10.30
2023-03-21T22:38:03.672Z,10.20
2023-03-21T22:40:30.425Z,11.00
2023-03-21T22:42:57.046Z,10.20
2023-03-21T22:45:23.627Z,10.20
2023-03-21T22:47:50.458Z,10.10
2023-03-21T22:50:17.163Z,11.90
2023-03-21T22:52:43.807Z,9.90
2023-03-21T22:55:12.619Z,9.80
2023-03-21T22:57:39.193Z,9.80
2023-03-21T23:00:13.032Z,12.40
2023-03-21T23:02:40.713Z,9.70
2023-03-21T23:05:08.479Z,10.20
2023-03-21T23:07:35.130Z,9.60
2023-03-21T23:10:01.944Z,9.60
2023-03-21T23:12:28.600Z,9.50
2023-03-21T23:14:55.505Z,9.40
2023-03-21T23:17:22.170Z,10.50
2023-03-21T23:19:48.816Z,9.30
2023-03-21T23:22:15.483Z,9.20
2023-03-21T23:24:42.170Z,9.10
2023-03-21T23:27:08.861Z,9.10
2023-03-21T23:29:35.658Z,8.90
2023-03-21T23:32:02.319Z,8.90
2023-03-21T23:34:28.907Z,8.90
2023-03-21T23:36:55.559Z,8.70
2023-03-21T23:39:22.139Z,8.70
2023-03-21T23:41:48.862Z,8.70
2023-03-21T23:44:16.236Z,10.30
2023-03-21T23:46:42.893Z,8.60
2023-03-21T23:49:09.894Z,10.20
2023-03-21T23:51:36.502Z,8.50
2023-03-21T23:54:03.138Z,8.40
2023-03-21T23:56:29.817Z,8.40
2023-03-21T23:58:57.261Z,8.60
